Argyle, New York
Current Conditions -  °F | °C
As of 7:16 AM on Friday 24 Oct 2014 (Local Time) from KGFL Reporting Station
Light Rain Light Rain  
Wind Chill: 44°   Ceiling: 300
Heat Index: 44°   Visibility: 3mi
Dew Point: 43°   Wind: 0mph
Humidity: 96%   Direction: NA
Pressure: 29.84"   Gusts: NA
Location:  43.24°N, 73.49°W
Report Text: KGFL 241116Z AUTO 00000KT 3SM -RA BR OVC003 07/06 A2984 RMK AO2 P0002 T00670061
Loading
Personal Weather Stations






























Interactive Weather Map
Tropical Storm Tracking
New forecast layout! Learn more

10-Day Weather Forecast

Advertisements
Track Severe Weather on mobile